createdAt,value
2023-04-25T00:00:32.865Z,11.69
2023-04-25T00:03:00.562Z,11.64
2023-04-25T00:05:28.553Z,11.66
2023-04-25T00:07:55.559Z,11.66
2023-04-25T00:10:23.074Z,11.70
2023-04-25T00:12:50.864Z,11.76
2023-04-25T00:15:18.532Z,11.82
2023-04-25T00:17:46.717Z,11.87
2023-04-25T00:20:14.306Z,11.89
2023-04-25T00:22:41.668Z,11.98
2023-04-25T00:25:08.938Z,12.01
2023-04-25T00:27:36.322Z,12.03
2023-04-25T00:30:04.208Z,12.05
2023-04-25T00:32:31.318Z,12.11
2023-04-25T00:34:58.822Z,12.20
2023-04-25T00:37:25.964Z,12.34
2023-04-25T00:39:54.471Z,12.48
2023-04-25T00:42:21.908Z,12.63
2023-04-25T00:44:48.918Z,12.74
2023-04-25T00:47:16.305Z,12.87
2023-04-25T00:49:44.192Z,12.98
2023-04-25T00:52:12.876Z,13.09
2023-04-25T00:54:40.035Z,13.20
2023-04-25T00:57:07.379Z,13.26
2023-04-25T00:59:34.799Z,13.35
2023-04-25T01:02:02.387Z,13.53
2023-04-25T01:04:29.814Z,13.70
2023-04-25T01:06:57.657Z,13.95
2023-04-25T01:09:25.471Z,14.14
2023-04-25T01:11:52.770Z,14.21
2023-04-25T01:14:20.312Z,14.18
2023-04-25T01:16:47.404Z,14.24
2023-04-25T01:19:14.902Z,14.42
2023-04-25T01:21:42.169Z,14.53
2023-04-25T01:24:09.490Z,14.45
2023-04-25T01:26:37.498Z,14.25
2023-04-25T01:29:05.793Z,14.07
2023-04-25T01:31:33.581Z,13.92
2023-04-25T01:34:01.581Z,13.81
2023-04-25T01:36:29.703Z,13.77
2023-04-25T01:38:56.838Z,13.68
2023-04-25T01:41:24.309Z,13.55
2023-04-25T01:43:52.035Z,13.41
2023-04-25T01:46:19.681Z,13.32
2023-04-25T01:48:47.224Z,13.23
2023-04-25T01:51:14.692Z,13.15
2023-04-25T01:53:42.222Z,13.15
2023-04-25T01:56:09.907Z,13.08
2023-04-25T01:58:37.380Z,13.03
2023-04-25T02:01:26.327Z,13.09
2023-04-25T02:04:12.210Z,13.13
2023-04-25T02:06:41.152Z,13.23
2023-04-25T02:09:08.800Z,13.35
2023-04-25T02:11:40.678Z,13.49
2023-04-25T02:14:40.204Z,13.70
2023-04-25T02:17:17.431Z,13.83
2023-04-25T02:19:46.255Z,13.93
2023-04-25T02:22:13.617Z,14.02
2023-04-25T02:24:41.096Z,14.12
2023-04-25T02:27:08.821Z,14.23
2023-04-25T02:29:36.534Z,14.38
2023-04-25T02:32:04.394Z,14.44
2023-04-25T02:34:32.031Z,14.50
2023-04-25T02:37:01.458Z,14.49
2023-04-25T02:39:28.835Z,14.49
2023-04-25T02:41:56.593Z,14.53
2023-04-25T02:44:24.187Z,14.61
2023-04-25T02:46:51.675Z,14.58
2023-04-25T02:49:19.003Z,14.45
2023-04-25T02:51:46.458Z,14.31
2023-04-25T02:54:14.138Z,14.17
2023-04-25T02:56:44.613Z,14.08
2023-04-25T02:59:17.425Z,13.96
2023-04-25T03:01:44.876Z,13.84
2023-04-25T03:04:12.097Z,13.71
2023-04-25T03:06:39.235Z,13.58
2023-04-25T03:09:06.753Z,13.42
2023-04-25T03:11:33.905Z,13.28
2023-04-25T03:14:02.160Z,12.96
2023-04-25T03:16:29.304Z,12.40
2023-04-25T03:18:56.677Z,12.18
2023-04-25T03:21:24.212Z,12.18
2023-04-25T03:23:52.276Z,12.22
2023-04-25T03:26:19.867Z,12.47
2023-04-25T03:28:47.015Z,12.63
2023-04-25T03:31:14.596Z,12.87
2023-04-25T03:33:42.202Z,13.07
2023-04-25T03:36:10.212Z,13.26
2023-04-25T03:38:37.725Z,13.62
2023-04-25T03:41:06.865Z,14.13
2023-04-25T03:43:43.533Z,14.71
2023-04-25T03:46:13.438Z,15.37
2023-04-25T03:48:41.904Z,16.00
2023-04-25T03:51:12.293Z,16.75
2023-04-25T03:53:43.003Z,17.36
2023-04-25T03:56:16.097Z,17.74
2023-04-25T03:58:45.996Z,17.83
2023-04-25T04:01:15.203Z,18.39
2023-04-25T04:03:42.986Z,18.43
2023-04-25T04:06:11.783Z,18.60
2023-04-25T04:08:44.556Z,18.65
2023-04-25T04:11:12.611Z,18.43
2023-04-25T04:13:39.643Z,18.13
2023-04-25T04:16:08.049Z,17.96
2023-04-25T04:18:36.773Z,17.76
2023-04-25T04:21:04.085Z,17.46
2023-04-25T04:23:34.355Z,17.11
2023-04-25T04:26:02.143Z,16.70
2023-04-25T04:28:49.329Z,16.31
2023-04-25T04:31:39.771Z,16.11
2023-04-25T04:34:06.986Z,15.91
2023-04-25T04:36:35.685Z,15.65
2023-04-25T04:39:04.255Z,15.35
2023-04-25T04:42:02.499Z,14.97
2023-04-25T04:44:39.648Z,14.69
2023-04-25T04:47:24.715Z,14.38
2023-04-25T04:50:12.122Z,14.19
2023-04-25T04:53:14.292Z,13.92
2023-04-25T04:56:01.898Z,13.67
2023-04-25T04:58:53.258Z,13.38
2023-04-25T05:01:40.684Z,13.05
2023-04-25T05:04:44.790Z,12.82
2023-04-25T05:07:35.436Z,12.63
2023-04-25T05:10:10.213Z,12.32
2023-04-25T05:12:58.334Z,12.07
2023-04-25T05:15:31.647Z,11.92
2023-04-25T05:18:18.940Z,11.78
2023-04-25T05:20:54.443Z,11.09
2023-04-25T05:23:38.859Z,10.48
2023-04-25T05:26:44.609Z,9.99
2023-04-25T05:29:34.298Z,9.78
2023-04-25T05:32:22.340Z,9.55
2023-04-25T05:34:50.800Z,9.44
2023-04-25T05:37:24.310Z,9.43
2023-04-25T05:39:58.035Z,9.40
2023-04-25T05:42:33.655Z,9.36
2023-04-25T05:45:19.431Z,9.23
2023-04-25T05:47:55.330Z,9.11
2023-04-25T05:50:42.648Z,8.89
2023-04-25T05:53:34.379Z,8.67
2023-04-25T05:56:03.777Z,8.51
2023-04-25T05:58:31.497Z,8.49
2023-04-25T06:01:00.486Z,8.53
2023-04-25T06:03:28.699Z,8.68
2023-04-25T06:05:58.449Z,8.73
2023-04-25T06:08:26.643Z,8.59
2023-04-25T06:10:53.780Z,8.51
2023-04-25T06:13:20.876Z,8.69
2023-04-25T06:15:48.427Z,8.99
2023-04-25T06:18:15.667Z,9.56
2023-04-25T06:20:43.203Z,10.02
2023-04-25T06:23:11.072Z,10.31
2023-04-25T06:25:47.343Z,10.65
2023-04-25T06:28:15.525Z,11.06
2023-04-25T06:30:44.091Z,11.32
2023-04-25T06:33:15.477Z,11.43
2023-04-25T06:35:42.810Z,11.69
2023-04-25T06:38:13.080Z,11.89
2023-04-25T06:40:43.998Z,12.02
2023-04-25T06:43:11.457Z,12.21
2023-04-25T06:45:57.000Z,12.47
2023-04-25T06:48:28.234Z,12.55
2023-04-25T06:50:57.571Z,12.58
2023-04-25T06:53:25.505Z,12.67
2023-04-25T06:55:58.972Z,12.58
2023-04-25T06:58:31.497Z,12.60
2023-04-25T07:01:34.043Z,12.57
2023-04-25T07:04:05.847Z,12.39
2023-04-25T07:06:35.147Z,12.02
2023-04-25T07:09:02.695Z,11.77
2023-04-25T07:11:30.029Z,11.66
2023-04-25T07:13:57.411Z,11.60
2023-04-25T07:16:24.406Z,11.52
2023-04-25T07:18:52.852Z,11.54
2023-04-25T07:21:20.462Z,11.75
2023-04-25T07:23:50.256Z,11.91
2023-04-25T07:26:22.289Z,12.08
2023-04-25T07:29:09.667Z,12.29
2023-04-25T07:31:36.978Z,12.50
2023-04-25T07:34:04.258Z,12.73
2023-04-25T07:36:31.776Z,12.84
2023-04-25T07:38:59.244Z,12.88
2023-04-25T07:41:26.611Z,12.47
2023-04-25T07:43:53.721Z,11.40
2023-04-25T07:46:21.888Z,10.08
2023-04-25T07:48:49.409Z,8.76
2023-04-25T07:51:17.121Z,7.75
2023-04-25T07:53:44.306Z,7.08
2023-04-25T07:56:14.495Z,6.65
2023-04-25T07:58:44.242Z,6.45
2023-04-25T08:01:14.476Z,6.31
2023-04-25T08:03:50.755Z,6.17
2023-04-25T08:06:44.354Z,6.02
2023-04-25T08:09:19.346Z,5.86
2023-04-25T08:11:47.606Z,5.80
2023-04-25T08:14:17.459Z,5.97
2023-04-25T08:16:45.988Z,6.28
2023-04-25T08:19:13.995Z,6.53
2023-04-25T08:21:41.170Z,6.78
2023-04-25T08:24:12.562Z,6.87
2023-04-25T08:26:42.288Z,6.94
2023-04-25T08:29:12.651Z,6.87
2023-04-25T08:31:41.919Z,6.89
2023-04-25T08:34:10.319Z,6.93
2023-04-25T08:36:51.408Z,7.12
2023-04-25T08:39:38.244Z,7.07
2023-04-25T08:42:23.849Z,7.08
2023-04-25T08:44:51.311Z,7.20
2023-04-25T08:47:20.344Z,7.26
2023-04-25T08:49:52.479Z,7.27
2023-04-25T08:52:22.757Z,7.25
2023-04-25T08:54:50.224Z,7.40
2023-04-25T08:57:18.690Z,7.59
2023-04-25T08:59:47.828Z,7.54
2023-04-25T09:02:17.845Z,7.54
2023-04-25T09:04:48.528Z,7.45
2023-04-25T09:07:19.226Z,7.24
2023-04-25T09:09:46.988Z,7.13
2023-04-25T09:12:20.220Z,6.95
2023-04-25T09:15:10.562Z,6.90
2023-04-25T09:18:06.721Z,7.20
2023-04-25T09:21:00.926Z,7.57
2023-04-25T09:23:32.920Z,8.05
2023-04-25T09:26:00.500Z,8.35
2023-04-25T09:28:30.082Z,8.57
2023-04-25T09:31:01.794Z,8.74
2023-04-25T09:33:47.008Z,8.89
2023-04-25T09:36:14.840Z,9.01
2023-04-25T09:39:17.159Z,8.98
2023-04-25T09:41:56.111Z,8.98
2023-04-25T09:44:27.821Z,8.94
2023-04-25T09:46:56.411Z,8.93
2023-04-25T09:49:28.510Z,8.98
2023-04-25T09:52:05.756Z,9.05
2023-04-25T09:54:42.354Z,9.16
2023-04-25T09:57:24.358Z,9.26
2023-04-25T09:59:55.057Z,9.28
2023-04-25T10:02:24.281Z,9.27
2023-04-25T10:04:55.709Z,9.11
2023-04-25T10:07:31.725Z,8.79
2023-04-25T10:10:04.116Z,8.58
2023-04-25T10:12:33.709Z,8.38
2023-04-25T10:15:01.641Z,8.15
2023-04-25T10:17:29.413Z,7.91
2023-04-25T10:19:57.596Z,7.66
2023-04-25T10:22:31.535Z,7.48
2023-04-25T10:24:58.936Z,7.33
2023-04-25T10:27:28.561Z,7.20
2023-04-25T10:30:07.335Z,6.99
2023-04-25T10:32:34.864Z,6.83
2023-04-25T10:35:12.795Z,6.70
2023-04-25T10:37:57.128Z,6.58
2023-04-25T10:40:24.283Z,6.49
2023-04-25T10:42:54.881Z,6.43
2023-04-25T10:45:22.252Z,6.35
2023-04-25T10:47:49.860Z,6.31
2023-04-25T10:50:17.589Z,6.22
2023-04-25T10:52:47.861Z,6.08
2023-04-25T10:55:15.293Z,5.97
2023-04-25T10:57:44.780Z,5.93
2023-04-25T11:00:13.975Z,5.93
2023-04-25T11:02:49.468Z,6.06
2023-04-25T11:05:24.582Z,6.24
2023-04-25T11:08:03.890Z,6.37
2023-04-25T11:10:38.228Z,6.46
2023-04-25T11:13:05.802Z,6.60
2023-04-25T11:15:33.516Z,6.69
2023-04-25T11:18:00.983Z,6.82
2023-04-25T11:20:29.563Z,6.83
2023-04-25T11:23:00.010Z,6.85
2023-04-25T11:25:27.817Z,6.84
2023-04-25T11:27:59.062Z,6.84
2023-04-25T11:30:27.009Z,6.90
2023-04-25T11:32:54.281Z,6.91
2023-04-25T11:35:24.319Z,6.95
2023-04-25T11:37:52.814Z,6.94
2023-04-25T11:40:20.276Z,6.88
2023-04-25T11:42:47.923Z,6.88
2023-04-25T11:45:15.368Z,6.91
2023-04-25T11:47:42.775Z,6.88
2023-04-25T11:50:10.722Z,6.95
2023-04-25T11:52:39.085Z,6.94
2023-04-25T11:55:09.115Z,6.92
2023-04-25T11:57:41.512Z,6.82
2023-04-25T12:00:18.584Z,6.67
2023-04-25T12:02:48.200Z,6.49
2023-04-25T12:07:49.259Z,6.06
2023-04-25T12:10:17.632Z,5.82
2023-04-25T12:12:46.087Z,5.66
2023-04-25T12:15:26.634Z,5.47
2023-04-25T12:17:55.185Z,5.35
2023-04-25T12:20:25.212Z,5.25
2023-04-25T12:22:52.843Z,5.23
2023-04-25T12:25:35.826Z,5.24
2023-04-25T12:28:23.742Z,5.14
2023-04-25T12:31:05.467Z,5.04
2023-04-25T12:33:43.459Z,4.94
2023-04-25T12:36:12.575Z,4.82
2023-04-25T12:38:41.525Z,4.71
2023-04-25T12:41:09.442Z,4.59
2023-04-25T12:43:37.327Z,4.53
2023-04-25T12:46:04.840Z,4.42
2023-04-25T12:48:32.287Z,4.31
2023-04-25T12:50:59.716Z,4.20
2023-04-25T12:53:27.136Z,4.10
2023-04-25T12:58:26.566Z,3.96
2023-04-25T13:00:54.153Z,3.95
2023-04-25T13:03:22.986Z,3.92
2023-04-25T13:05:51.028Z,3.88
2023-04-25T13:08:18.121Z,3.81
2023-04-25T13:10:45.312Z,3.69
2023-04-25T13:13:12.491Z,3.57
2023-04-25T13:15:40.506Z,3.50
2023-04-25T13:18:08.307Z,3.41
2023-04-25T13:20:36.679Z,3.33
2023-04-25T13:23:04.066Z,3.25
2023-04-25T13:25:31.558Z,3.15
2023-04-25T13:27:58.571Z,3.09
2023-04-25T13:30:25.763Z,3.06
2023-04-25T13:32:53.413Z,2.96
2023-04-25T13:35:20.750Z,2.91
2023-04-25T13:37:47.866Z,2.90
2023-04-25T13:40:15.639Z,2.81
2023-04-25T13:42:43.635Z,2.78
2023-04-25T13:45:11.379Z,2.74
2023-04-25T13:47:38.477Z,2.68
2023-04-25T13:50:08.691Z,2.60
2023-04-25T13:52:35.805Z,2.59
2023-04-25T13:55:04.828Z,2.57
2023-04-25T13:57:32.377Z,2.54
2023-04-25T14:00:00.061Z,2.59
2023-04-25T14:02:27.846Z,2.55
2023-04-25T14:04:55.384Z,2.53
2023-04-25T14:07:22.575Z,2.51
2023-04-25T14:09:50.262Z,2.53
2023-04-25T14:12:17.347Z,2.50
2023-04-25T14:14:44.452Z,2.47
2023-04-25T14:17:11.898Z,2.44
2023-04-25T14:19:43.845Z,2.40
2023-04-25T14:22:11.242Z,2.37
2023-04-25T14:24:39.173Z,2.35
2023-04-25T14:27:06.415Z,2.31
2023-04-25T14:29:33.980Z,2.24
2023-04-25T14:32:01.208Z,2.16
2023-04-25T14:34:28.711Z,2.15
2023-04-25T14:36:56.180Z,2.13
2023-04-25T14:39:23.358Z,2.11
2023-04-25T14:41:50.553Z,2.10
2023-04-25T14:44:17.634Z,2.12
2023-04-25T14:46:45.621Z,2.02
2023-04-25T14:49:12.931Z,1.98
2023-04-25T14:51:40.066Z,1.94
2023-04-25T14:54:07.519Z,1.85
2023-04-25T14:56:34.852Z,1.73
2023-04-25T14:59:02.015Z,1.68
2023-04-25T15:01:29.196Z,1.62
2023-04-25T15:03:57.199Z,1.54
2023-04-25T15:06:27.261Z,1.45
2023-04-25T15:08:54.626Z,1.35
2023-04-25T15:11:23.107Z,1.24
2023-04-25T15:13:50.789Z,1.11
2023-04-25T15:16:19.142Z,1.09
2023-04-25T15:18:46.441Z,1.03
2023-04-25T15:21:13.430Z,0.99
2023-04-25T15:23:41.199Z,0.90
2023-04-25T15:26:09.323Z,0.80
2023-04-25T15:28:37.065Z,0.73
2023-04-25T15:31:04.136Z,0.70
2023-04-25T15:33:31.986Z,0.63
2023-04-25T15:35:59.439Z,0.58
2023-04-25T15:38:27.091Z,0.53
2023-04-25T15:40:54.191Z,0.48
2023-04-25T15:43:21.696Z,0.43
2023-04-25T15:45:48.803Z,0.40
2023-04-25T15:48:16.453Z,0.42
2023-04-25T15:50:44.112Z,0.34
2023-04-25T15:53:11.212Z,0.33
2023-04-25T15:55:38.648Z,0.26
2023-04-25T15:58:06.136Z,0.19
2023-04-25T16:00:36.192Z,0.18
2023-04-25T16:03:04.269Z,0.14
2023-04-25T16:05:32.514Z,0.10
2023-04-25T16:08:00.712Z,0.07
2023-04-25T16:10:27.761Z,0.07
2023-04-25T16:12:55.089Z,0.06
2023-04-25T16:15:22.608Z,0.02
2023-04-25T16:17:49.585Z,-0.05
2023-04-25T16:20:17.025Z,-0.09
2023-04-25T16:22:44.527Z,-0.16
2023-04-25T16:25:14.311Z,-0.18
2023-04-25T16:27:41.461Z,-0.15
2023-04-25T16:30:09.932Z,-0.10
2023-04-25T16:32:37.718Z,-0.07
2023-04-25T16:35:05.363Z,-0.02
2023-04-25T16:37:32.609Z,-0.07
2023-04-25T16:39:59.968Z,-0.10
2023-04-25T16:42:27.639Z,-0.11
2023-04-25T16:44:55.379Z,-0.11
2023-04-25T16:47:22.696Z,-0.07
2023-04-25T16:49:50.617Z,-0.02
2023-04-25T16:52:17.630Z,0.04
2023-04-25T16:54:45.802Z,0.13
2023-04-25T16:57:13.489Z,0.23
2023-04-25T16:59:41.195Z,0.32
2023-04-25T17:02:12.466Z,0.42
2023-04-25T17:04:40.443Z,0.50
2023-04-25T17:07:08.456Z,0.53
2023-04-25T17:09:35.929Z,0.58
2023-04-25T17:12:03.813Z,0.63
2023-04-25T17:14:33.186Z,0.65
2023-04-25T17:17:00.708Z,0.68
2023-04-25T17:19:28.286Z,0.73
2023-04-25T17:21:56.164Z,0.77
2023-04-25T17:24:23.533Z,0.82
2023-04-25T17:26:50.669Z,0.84
2023-04-25T17:29:18.764Z,0.89
2023-04-25T17:31:46.176Z,0.93
2023-04-25T17:34:17.552Z,0.95
2023-04-25T17:36:48.397Z,0.96
2023-04-25T17:39:16.970Z,0.95
2023-04-25T17:41:44.701Z,0.93
2023-04-25T17:44:11.712Z,0.88
2023-04-25T17:46:39.252Z,0.84
2023-04-25T17:49:06.598Z,0.81
2023-04-25T17:51:33.800Z,0.80
2023-04-25T17:54:01.288Z,0.77
2023-04-25T17:56:28.957Z,0.78
2023-04-25T17:58:56.283Z,0.79
2023-04-25T18:01:23.694Z,0.86
2023-04-25T18:03:51.999Z,0.90
2023-04-25T18:06:19.497Z,0.90
2023-04-25T18:08:47.222Z,0.88
2023-04-25T18:11:14.419Z,0.84
2023-04-25T18:13:41.664Z,0.83
2023-04-25T18:16:08.984Z,0.81
2023-04-25T18:18:36.596Z,0.80
2023-04-25T18:21:04.943Z,0.76
2023-04-25T18:23:33.603Z,0.74
2023-04-25T18:26:01.078Z,0.67
2023-04-25T18:28:29.132Z,0.62
2023-04-25T18:30:56.530Z,0.57
2023-04-25T18:33:23.705Z,0.53
2023-04-25T18:35:58.241Z,0.47
2023-04-25T18:41:06.236Z,0.41
2023-04-25T18:43:44.118Z,0.39
2023-04-25T18:46:12.016Z,0.37
2023-04-25T18:48:39.251Z,0.37
2023-04-25T18:51:06.477Z,0.36
2023-04-25T18:53:33.894Z,0.39
2023-04-25T18:56:01.394Z,0.47
2023-04-25T18:58:28.467Z,0.58
2023-04-25T19:00:56.064Z,0.74
2023-04-25T19:03:23.336Z,0.86
2023-04-25T19:05:50.862Z,0.98
2023-04-25T19:08:17.979Z,1.07
2023-04-25T19:10:45.726Z,1.16
2023-04-25T19:13:13.335Z,1.25
2023-04-25T19:15:40.400Z,1.33
2023-04-25T19:18:08.312Z,1.40
2023-04-25T19:20:36.189Z,1.43
2023-04-25T19:23:04.959Z,1.44
2023-04-25T19:25:31.956Z,1.46
2023-04-25T19:28:00.646Z,1.46
2023-04-25T19:30:29.000Z,1.46
2023-04-25T19:32:59.217Z,1.45
2023-04-25T19:35:30.459Z,1.45
2023-04-25T19:37:57.832Z,1.40
2023-04-25T19:40:25.012Z,1.34
2023-04-25T19:42:52.014Z,1.25
2023-04-25T19:45:19.417Z,1.13
2023-04-25T19:47:46.742Z,1.05
2023-04-25T19:50:14.663Z,0.97
2023-04-25T19:52:42.301Z,0.91
2023-04-25T19:55:10.644Z,0.79
2023-04-25T19:57:38.217Z,0.77
2023-04-25T20:00:11.588Z,0.73
2023-04-25T20:02:45.348Z,0.67
2023-04-25T20:05:14.449Z,0.59
2023-04-25T20:07:41.619Z,0.52
2023-04-25T20:10:12.232Z,0.46
2023-04-25T20:12:42.277Z,0.40
2023-04-25T20:15:11.125Z,0.35
2023-04-25T20:17:39.933Z,0.27
2023-04-25T20:20:09.701Z,0.22
2023-04-25T20:22:38.467Z,0.18
2023-04-25T20:25:06.714Z,0.14
2023-04-25T20:27:33.759Z,0.09
2023-04-25T20:30:03.050Z,0.05
2023-04-25T20:32:32.194Z,-0.01
2023-04-25T20:34:59.733Z,-0.04
2023-04-25T20:37:27.224Z,-0.08
2023-04-25T20:39:54.559Z,-0.08
2023-04-25T20:42:23.332Z,-0.12
2023-04-25T20:44:50.445Z,-0.17
2023-04-25T20:47:17.517Z,-0.18
2023-04-25T20:49:44.801Z,-0.19
2023-04-25T20:52:12.197Z,-0.18
2023-04-25T20:54:39.253Z,-0.20
2023-04-25T20:57:06.577Z,-0.18
2023-04-25T20:59:33.659Z,-0.17
2023-04-25T21:02:01.293Z,-0.15
2023-04-25T21:04:28.881Z,-0.13
2023-04-25T21:06:56.306Z,-0.11
2023-04-25T21:09:23.687Z,-0.09
2023-04-25T21:11:51.636Z,-0.05
2023-04-25T21:14:18.934Z,-0.05
2023-04-25T21:16:45.986Z,0.04
2023-04-25T21:19:13.430Z,0.07
2023-04-25T21:21:40.895Z,0.11
2023-04-25T21:24:09.657Z,0.14
2023-04-25T21:26:36.948Z,0.14
2023-04-25T21:29:04.392Z,0.18
2023-04-25T21:31:31.786Z,0.18
2023-04-25T21:33:59.096Z,0.20
2023-04-25T21:36:27.495Z,0.22
2023-04-25T21:38:55.289Z,0.23
2023-04-25T21:41:22.579Z,0.23
2023-04-25T21:43:50.253Z,0.26
2023-04-25T21:46:23.366Z,0.24
2023-04-25T21:48:51.699Z,0.26
2023-04-25T21:51:19.541Z,0.26
2023-04-25T21:53:46.864Z,0.25
2023-04-25T21:56:14.072Z,0.27
2023-04-25T21:58:41.476Z,0.25
2023-04-25T22:01:09.568Z,0.26
2023-04-25T22:03:37.031Z,0.25
2023-04-25T22:06:04.667Z,0.23
2023-04-25T22:08:31.668Z,0.24
2023-04-25T22:11:00.086Z,0.25
2023-04-25T22:13:28.651Z,0.26
2023-04-25T22:15:56.087Z,0.30
2023-04-25T22:18:23.568Z,0.35
2023-04-25T22:20:50.916Z,0.40
2023-04-25T22:23:18.662Z,0.46
2023-04-25T22:25:46.020Z,0.54
2023-04-25T22:28:14.697Z,0.57
2023-04-25T22:30:42.074Z,0.65
2023-04-25T22:33:09.792Z,0.71
2023-04-25T22:35:37.219Z,0.79
2023-04-25T22:38:04.619Z,0.86
2023-04-25T22:40:32.050Z,0.88
2023-04-25T22:42:59.657Z,0.85
2023-04-25T22:45:27.116Z,0.95
2023-04-25T22:47:54.262Z,1.00
2023-04-25T22:50:21.748Z,1.07
2023-04-25T22:52:48.749Z,1.08
2023-04-25T22:55:16.088Z,1.14
2023-04-25T22:57:43.261Z,1.20
2023-04-25T23:00:19.620Z,1.27
2023-04-25T23:02:47.575Z,1.37
2023-04-25T23:05:15.019Z,1.38
2023-04-25T23:07:43.379Z,1.41
2023-04-25T23:10:10.725Z,1.44
2023-04-25T23:12:38.002Z,1.56
2023-04-25T23:15:05.784Z,1.72
2023-04-25T23:17:33.013Z,1.86
2023-04-25T23:20:00.540Z,2.01
2023-04-25T23:22:28.225Z,2.20
2023-04-25T23:24:55.711Z,2.39
2023-04-25T23:27:22.993Z,2.49
2023-04-25T23:29:56.705Z,2.64
2023-04-25T23:32:25.811Z,2.72
2023-04-25T23:34:53.306Z,2.78
2023-04-25T23:37:20.362Z,2.91
2023-04-25T23:39:49.672Z,2.98
2023-04-25T23:42:17.604Z,2.98
2023-04-25T23:44:45.243Z,3.03
2023-04-25T23:47:14.250Z,3.05
2023-04-25T23:49:41.846Z,3.05
2023-04-25T23:52:09.559Z,3.08
2023-04-25T23:54:36.957Z,3.08
2023-04-25T23:57:04.410Z,3.08
2023-04-25T23:59:32.134Z,3.16
